Observations for QUIMPER PLUGUFF, France (LFRQ)

LFRQ 170030Z AUTO 31005KT CAVOK 15/14 Q1018 
LFRQ 170000Z AUTO 34001KT CAVOK 15/14 Q1018 
LFRQ 162330Z AUTO 32004KT 9000 NSC 15/14 Q1018  
LFRQ 162300Z AUTO 30007KT 5000 BR NSC 15/15 Q1018   
LFRQ 162230Z AUTO 29003KT 260V320 8000 NSC 15/14 Q1018  
LFRQ 162200Z AUTO 34003KT CAVOK 16/14 Q1018 
LFRQ 162130Z AUTO VRB02KT CAVOK 16/14 Q1018 
LFRQ 162100Z AUTO 32005KT CAVOK 16/14 Q1018 NOSIG   
LFRQ 162030Z AUTO 31005KT CAVOK 17/14 Q1018 NOSIG   
LFRQ 162000Z AUTO 32008KT CAVOK 18/14 Q1018 NOSIG   
LFRQ 161930Z AUTO 30008KT CAVOK 19/14 Q1018 NOSIG   
LFRQ 161900Z AUTO 32008KT CAVOK 20/14 Q1018 NOSIG   
LFRQ 161830Z AUTO 32008KT CAVOK 21/15 Q1018 NOSIG   
LFRQ 161800Z AUTO 31010KT CAVOK 22/16 Q1018 NOSIG   
LFRQ 161730Z AUTO 26007KT CAVOK 24/13 Q1018 NOSIG   
LFRQ 161700Z AUTO 25008KT CAVOK 24/12 Q1018 NOSIG   
LFRQ 161630Z AUTO 26009KT 220V290 CAVOK 24/12 Q1018 NOSIG   
LFRQ 161600Z AUTO 26008KT 230V290 CAVOK 24/12 Q1018 NOSIG   
LFRQ 161530Z AUTO 24009KT 210V280 CAVOK 25/12 Q1018 NOSIG   
LFRQ 161500Z AUTO 25009KT 210V270 CAVOK 24/11 Q1018 NOSIG   
LFRQ 161430Z AUTO 24009KT 200V270 CAVOK 25/12 Q1019 NOSIG   
LFRQ 161400Z AUTO 24008KT 180V290 CAVOK 25/13 Q1019 NOSIG   
LFRQ 161330Z AUTO 23009KT 190V280 9999 BKN041 25/13 Q1019 NOSIG 
LFRQ 161300Z AUTO 21008KT 170V260 9999 BKN043 BKN058 25/14 Q1019 NOSIG  
LFRQ 161230Z AUTO 22007KT 170V270 9999 SCT041 BKN049 25/14 Q1019 NOSIG  
LFRQ 161200Z AUTO 22005KT 190V260 9999 FEW036 SCT049 BKN058 24/14 Q1019 NOSIG   
LFRQ 161130Z AUTO VRB04KT CAVOK 26/13 Q1019 NOSIG   
LFRQ 161100Z AUTO VRB01KT CAVOK 25/12 Q1019 NOSIG   
LFRQ 161030Z AUTO VRB02KT CAVOK 24/11 Q1019 NOSIG   
LFRQ 161000Z AUTO VRB03KT CAVOK 24/12 Q1019 NOSIG   
LFRQ 160930Z AUTO VRB03KT CAVOK 24/13 Q1019 NOSIG   
LFRQ 160900Z AUTO VRB02KT CAVOK 22/12 Q1019 NOSIG   
LFRQ 160830Z AUTO VRB01KT CAVOK 22/11 Q1019 NOSIG   
LFRQ 160800Z AUTO 00000KT CAVOK 21/12 Q1020 NOSIG   
LFRQ 160730Z AUTO 00000KT CAVOK 19/12 Q1020 NOSIG   
LFRQ 160700Z AUTO VRB02KT CAVOK 18/12 Q1019 NOSIG   
LFRQ 160630Z AUTO 05002KT CAVOK 16/13 Q1019 NOSIG   
LFRQ 160600Z AUTO 04003KT CAVOK 15/12 Q1019 NOSIG   
LFRQ 160530Z AUTO 03002KT CAVOK 13/11 Q1019 NOSIG   
LFRQ 160500Z AUTO 05003KT CAVOK 13/11 Q1019 
LFRQ 160430Z AUTO 01003KT CAVOK 12/11 Q1019 
LFRQ 160400Z AUTO 03003KT CAVOK 12/10 Q1019 
LFRQ 160330Z AUTO 03003KT CAVOK 13/11 Q1019 
LFRQ 160300Z AUTO 03004KT CAVOK 13/11 Q1019 
LFRQ 160230Z AUTO 02003KT CAVOK 13/11 Q1019 
LFRQ 160200Z AUTO 03004KT CAVOK 13/11 Q1019 
LFRQ 160130Z AUTO 03004KT CAVOK 13/11 Q1020 
LFRQ 160100Z AUTO 02004KT CAVOK 14/12 Q1020 
LFRQ 160030Z AUTO 03004KT CAVOK 14/12 Q1020 
LFRQ 160000Z AUTO 03004KT CAVOK 15/12 Q1020